createdAt,value
2022-12-27T00:01:31.287Z,81.71
2022-12-27T00:03:57.783Z,81.86
2022-12-27T00:06:25.589Z,82.35
2022-12-27T00:08:52.705Z,82.98
2022-12-27T00:11:22.873Z,82.76
2022-12-27T00:13:49.415Z,82.67
2022-12-27T00:16:18.707Z,82.11
2022-12-27T00:18:49.126Z,81.52
2022-12-27T00:21:17.150Z,81.73
2022-12-27T00:23:47.212Z,81.19
2022-12-27T00:26:19.413Z,81.54
2022-12-27T00:28:46.385Z,81.64
2022-12-27T00:31:13.630Z,82.04
2022-12-27T00:33:42.474Z,82.28
2022-12-27T00:36:15.280Z,82.17
2022-12-27T00:38:41.922Z,80.13
2022-12-27T00:41:08.488Z,81.62
2022-12-27T00:43:35.201Z,80.87
2022-12-27T00:46:02.643Z,81.17
2022-12-27T00:48:29.028Z,80.46
2022-12-27T00:51:00.922Z,80.20
2022-12-27T00:53:28.939Z,80.59
2022-12-27T00:55:55.577Z,81.76
2022-12-27T00:58:22.284Z,81.42
2022-12-27T01:00:49.075Z,81.19
2022-12-27T01:03:16.548Z,80.68
2022-12-27T01:05:44.227Z,80.47
2022-12-27T01:08:10.681Z,77.90
2022-12-27T01:10:40.172Z,79.53
2022-12-27T01:13:08.037Z,78.68
2022-12-27T01:15:34.376Z,78.00
2022-12-27T01:18:00.786Z,78.30
2022-12-27T01:20:27.218Z,79.33
2022-12-27T01:22:54.767Z,79.15
2022-12-27T01:25:21.174Z,78.20
2022-12-27T01:27:47.529Z,78.27
2022-12-27T01:30:14.048Z,78.44
2022-12-27T01:32:40.403Z,77.14
2022-12-27T01:35:07.044Z,78.12
2022-12-27T01:37:33.396Z,79.12
2022-12-27T01:39:59.745Z,77.10
2022-12-27T01:42:46.184Z,76.47
2022-12-27T01:45:20.974Z,76.90
2022-12-27T01:47:50.492Z,76.97
2022-12-27T01:50:35.606Z,76.62
2022-12-27T01:53:18.802Z,75.46
2022-12-27T01:55:56.303Z,75.88
2022-12-27T01:58:31.451Z,74.62
2022-12-27T02:00:58.907Z,74.94
2022-12-27T02:03:37.489Z,75.57
2022-12-27T02:06:08.208Z,75.48
2022-12-27T02:08:43.742Z,73.07
2022-12-27T02:11:10.715Z,73.83
2022-12-27T02:13:41.499Z,73.57
2022-12-27T02:16:14.105Z,72.83
2022-12-27T02:18:40.950Z,73.76
2022-12-27T02:21:38.393Z,74.12
2022-12-27T02:24:15.859Z,74.81
2022-12-27T02:26:45.094Z,74.68
2022-12-27T02:29:32.690Z,74.28
2022-12-27T02:32:03.880Z,75.43
2022-12-27T02:34:59.239Z,74.66
2022-12-27T02:37:30.582Z,75.73
2022-12-27T02:40:19.616Z,75.36
2022-12-27T02:43:05.963Z,75.54
2022-12-27T02:45:57.507Z,75.57
2022-12-27T02:48:42.279Z,75.68
2022-12-27T02:51:47.421Z,76.51
2022-12-27T02:54:23.667Z,77.10
2022-12-27T02:57:09.120Z,76.60
2022-12-27T03:00:17.440Z,75.38
2022-12-27T03:03:23.703Z,75.74
2022-12-27T03:06:12.858Z,75.30
2022-12-27T03:08:55.090Z,73.64
2022-12-27T03:11:40.675Z,74.37
2022-12-27T03:14:44.795Z,73.37
2022-12-27T03:17:21.424Z,73.08
2022-12-27T03:20:11.961Z,73.32
2022-12-27T03:22:58.392Z,72.65
2022-12-27T03:25:28.920Z,73.09
2022-12-27T03:28:25.260Z,72.53
2022-12-27T03:31:18.613Z,72.47
2022-12-27T03:33:48.890Z,72.03
2022-12-27T03:36:40.249Z,72.08
2022-12-27T03:39:24.963Z,72.02
2022-12-27T03:42:16.861Z,71.88
2022-12-27T03:44:43.320Z,72.55
2022-12-27T03:47:36.399Z,72.91
2022-12-27T03:50:10.674Z,72.80
2022-12-27T03:52:53.196Z,72.77
2022-12-27T03:55:19.655Z,72.41
2022-12-27T03:57:46.607Z,72.86
2022-12-27T04:00:13.730Z,72.87
2022-12-27T04:02:40.536Z,72.82
2022-12-27T04:05:07.404Z,72.72
2022-12-27T04:07:33.798Z,72.55
2022-12-27T04:10:18.912Z,72.69
2022-12-27T04:13:03.642Z,72.44
2022-12-27T04:15:48.424Z,73.38
2022-12-27T04:18:33.310Z,72.96
2022-12-27T04:21:18.091Z,71.70
2022-12-27T04:24:02.887Z,72.51
2022-12-27T04:26:47.869Z,72.23
2022-12-27T04:29:32.527Z,72.55
2022-12-27T04:32:17.281Z,72.21
2022-12-27T04:34:43.764Z,72.51
2022-12-27T04:37:17.188Z,72.39
2022-12-27T04:40:03.290Z,71.96
2022-12-27T04:42:48.138Z,72.01
2022-12-27T04:45:33.097Z,71.73
2022-12-27T04:48:18.065Z,72.19
2022-12-27T04:51:02.714Z,72.38
2022-12-27T04:53:48.535Z,72.16
2022-12-27T04:56:14.891Z,71.81
2022-12-27T04:59:01.273Z,72.10
2022-12-27T05:01:47.651Z,72.14
2022-12-27T05:04:14.347Z,72.41
2022-12-27T05:06:40.752Z,72.00
2022-12-27T05:09:25.809Z,71.15
2022-12-27T05:12:10.694Z,71.10
2022-12-27T05:14:37.220Z,70.49
2022-12-27T05:17:03.723Z,70.03
2022-12-27T05:19:30.098Z,70.18
2022-12-27T05:22:14.928Z,69.72
2022-12-27T05:24:59.740Z,69.47
2022-12-27T05:27:26.148Z,69.78
2022-12-27T05:29:52.512Z,69.38
2022-12-27T05:32:18.939Z,69.22
2022-12-27T05:34:45.524Z,69.59
2022-12-27T05:37:11.880Z,69.84
2022-12-27T05:39:38.238Z,69.54
2022-12-27T05:42:04.793Z,68.71
2022-12-27T05:44:31.158Z,68.67
2022-12-27T05:46:57.553Z,68.88
2022-12-27T05:49:23.960Z,69.36
2022-12-27T05:51:50.381Z,68.74
2022-12-27T05:54:16.853Z,68.89
2022-12-27T05:56:43.416Z,68.75
2022-12-27T05:59:09.777Z,67.87
2022-12-27T06:01:36.278Z,68.51
2022-12-27T06:04:02.758Z,68.08
2022-12-27T06:06:29.142Z,67.88
2022-12-27T06:08:55.570Z,67.47
2022-12-27T06:11:22.038Z,68.06
2022-12-27T06:13:51.800Z,68.33
2022-12-27T06:16:19.922Z,68.11
2022-12-27T06:18:46.383Z,68.09
2022-12-27T06:21:19.413Z,67.65
2022-12-27T06:23:46.676Z,67.67
2022-12-27T06:26:23.046Z,67.74
2022-12-27T06:28:50.697Z,68.19
2022-12-27T06:31:18.815Z,68.10
2022-12-27T06:33:46.348Z,68.17
2022-12-27T06:36:14.695Z,68.31
2022-12-27T06:38:41.717Z,68.05
2022-12-27T06:41:10.380Z,68.42
2022-12-27T06:43:36.997Z,68.25
2022-12-27T06:46:06.187Z,69.57
2022-12-27T06:48:32.759Z,68.67
2022-12-27T06:50:59.233Z,68.72
2022-12-27T06:53:25.611Z,69.34
2022-12-27T06:55:52.060Z,67.87
2022-12-27T06:58:18.560Z,67.79
2022-12-27T07:00:44.933Z,68.65
2022-12-27T07:03:11.367Z,68.87
2022-12-27T07:05:38.504Z,69.02
2022-12-27T07:08:05.018Z,68.90
2022-12-27T07:10:31.400Z,68.71
2022-12-27T07:12:57.777Z,69.58
2022-12-27T07:15:24.727Z,69.77
2022-12-27T07:17:51.087Z,69.82
2022-12-27T07:20:17.464Z,69.29
2022-12-27T07:22:43.883Z,69.43
2022-12-27T07:25:10.345Z,69.47
2022-12-27T07:27:37.106Z,69.33
2022-12-27T07:30:04.555Z,69.53
2022-12-27T07:32:31.050Z,69.14
2022-12-27T07:34:57.417Z,69.39
2022-12-27T07:37:23.947Z,69.88
2022-12-27T07:39:50.389Z,69.71
2022-12-27T07:42:16.852Z,69.57
2022-12-27T07:44:43.377Z,69.76
2022-12-27T07:47:09.795Z,70.02
2022-12-27T07:49:36.148Z,70.11
2022-12-27T07:52:02.607Z,70.35
2022-12-27T07:54:28.981Z,69.83
2022-12-27T07:56:55.338Z,70.45
2022-12-27T07:59:22.432Z,70.43
2022-12-27T08:02:04.132Z,70.33
2022-12-27T08:04:32.329Z,69.86
2022-12-27T08:07:04.153Z,70.11
2022-12-27T08:09:33.852Z,70.66
2022-12-27T08:12:00.222Z,70.45
2022-12-27T08:14:26.682Z,69.74
2022-12-27T08:16:53.993Z,70.12
2022-12-27T08:19:20.487Z,69.89
2022-12-27T08:21:46.854Z,69.44
2022-12-27T08:24:13.225Z,70.36
2022-12-27T08:26:39.787Z,70.07
2022-12-27T08:29:06.304Z,69.59
2022-12-27T08:31:32.734Z,69.47
2022-12-27T08:33:59.110Z,69.40
2022-12-27T08:36:54.115Z,69.19
2022-12-27T08:39:12.076Z,69.50
2022-12-27T08:41:38.903Z,69.40
2022-12-27T08:44:05.575Z,69.44
2022-12-27T08:46:31.982Z,69.34
2022-12-27T08:48:58.386Z,69.83
2022-12-27T08:51:32.767Z,69.27
2022-12-27T08:54:05.340Z,69.19
2022-12-27T08:56:31.744Z,69.28
2022-12-27T08:58:58.129Z,69.37
2022-12-27T09:01:25.854Z,69.36
2022-12-27T09:03:52.493Z,69.15
2022-12-27T09:06:22.069Z,69.71
2022-12-27T09:08:49.850Z,69.29
2022-12-27T09:11:25.534Z,69.97
2022-12-27T09:13:52.451Z,69.10
2022-12-27T09:16:24.776Z,69.23
2022-12-27T09:18:53.363Z,69.72
2022-12-27T09:21:21.688Z,69.42
2022-12-27T09:23:49.197Z,69.25
2022-12-27T09:26:23.511Z,69.38
2022-12-27T09:28:50.478Z,69.38
2022-12-27T09:31:18.438Z,69.27
2022-12-27T09:33:45.204Z,69.26
2022-12-27T09:36:14.293Z,69.40
2022-12-27T09:38:41.939Z,69.74
2022-12-27T09:42:11.821Z,68.67
2022-12-27T09:44:13.165Z,68.86
2022-12-27T09:46:46.306Z,68.08
2022-12-27T09:49:27.146Z,68.25
2022-12-27T09:52:00.395Z,68.25
2022-12-27T09:54:32.907Z,68.34
2022-12-27T09:57:19.552Z,68.01
2022-12-27T09:59:56.952Z,67.96
2022-12-27T10:02:26.188Z,67.98
2022-12-27T10:05:20.513Z,68.14
2022-12-27T10:07:54.063Z,68.13
2022-12-27T10:10:40.696Z,68.05
2022-12-27T10:13:33.405Z,67.59
2022-12-27T10:16:15.547Z,67.60
2022-12-27T10:19:05.653Z,67.45
2022-12-27T10:21:37.481Z,67.71
2022-12-27T10:24:21.111Z,67.64
2022-12-27T10:26:48.847Z,67.21
2022-12-27T10:29:26.047Z,67.70
2022-12-27T10:31:52.853Z,67.64
2022-12-27T10:34:24.615Z,67.39
2022-12-27T10:36:52.902Z,67.36
2022-12-27T10:39:25.796Z,67.26
2022-12-27T10:42:16.861Z,67.13
2022-12-27T10:44:43.234Z,67.47
2022-12-27T10:47:11.182Z,66.12
2022-12-27T10:49:39.596Z,66.73
2022-12-27T10:52:22.460Z,66.39
2022-12-27T10:54:52.139Z,66.80
2022-12-27T10:57:29.481Z,66.63
2022-12-27T11:00:19.434Z,66.89
2022-12-27T11:02:53.052Z,66.22
2022-12-27T11:05:28.323Z,65.78
2022-12-27T11:07:55.463Z,65.84
2022-12-27T11:10:27.264Z,65.75
2022-12-27T11:13:04.816Z,66.04
2022-12-27T11:15:40.440Z,65.97
2022-12-27T11:18:19.446Z,65.41
2022-12-27T11:20:52.931Z,65.02
2022-12-27T11:23:24.633Z,64.82
2022-12-27T11:25:59.723Z,65.34
2022-12-27T11:28:33.875Z,65.33
2022-12-27T11:31:10.129Z,65.19
2022-12-27T11:33:41.125Z,65.66
2022-12-27T11:36:10.976Z,65.23
2022-12-27T11:38:39.541Z,65.30
2022-12-27T11:41:11.311Z,65.28
2022-12-27T11:44:13.731Z,65.33
2022-12-27T11:46:46.190Z,64.88
2022-12-27T11:49:23.862Z,64.54
2022-12-27T11:52:41.797Z,64.75
2022-12-27T11:55:45.370Z,65.26
2022-12-27T11:58:17.973Z,64.67
2022-12-27T12:01:27.166Z,65.11
2022-12-27T12:04:20.368Z,65.28
2022-12-27T12:07:03.316Z,65.11
2022-12-27T12:09:56.332Z,65.06
2022-12-27T12:12:41.340Z,65.15
2022-12-27T12:15:45.569Z,65.57
2022-12-27T12:18:37.971Z,65.41
2022-12-27T12:21:33.679Z,65.90
2022-12-27T12:24:06.735Z,66.15
2022-12-27T12:27:24.421Z,65.51
2022-12-27T12:30:12.906Z,65.06
2022-12-27T12:33:12.828Z,65.14
2022-12-27T12:36:23.561Z,65.66
2022-12-27T12:39:02.612Z,65.80
2022-12-27T12:41:59.861Z,65.76
2022-12-27T12:45:05.884Z,65.82
2022-12-27T12:47:51.858Z,65.71
2022-12-27T12:50:28.965Z,66.38
2022-12-27T12:53:14.130Z,65.87
2022-12-27T12:56:09.712Z,66.21
2022-12-27T12:58:50.743Z,66.21
2022-12-27T13:01:33.793Z,66.12
2022-12-27T13:04:27.680Z,66.04
2022-12-27T13:07:12.785Z,65.84
2022-12-27T13:09:42.036Z,65.70
2022-12-27T13:12:35.570Z,66.00
2022-12-27T13:15:43.419Z,65.67
2022-12-27T13:18:30.755Z,65.86
2022-12-27T13:21:09.891Z,65.97
2022-12-27T13:23:56.443Z,65.76
2022-12-27T13:26:38.303Z,65.64
2022-12-27T13:29:34.465Z,66.11
2022-12-27T13:32:15.352Z,65.63
2022-12-27T13:34:53.929Z,65.93
2022-12-27T13:37:33.664Z,65.70
2022-12-27T13:40:41.179Z,66.35
2022-12-27T13:43:28.263Z,66.16
2022-12-27T13:46:12.772Z,66.51
2022-12-27T13:49:00.794Z,66.54
2022-12-27T13:51:47.461Z,66.44
2022-12-27T13:54:55.545Z,66.09
2022-12-27T13:57:38.838Z,66.68
2022-12-27T14:00:18.261Z,66.83
2022-12-27T14:03:01.082Z,66.88
2022-12-27T14:06:03.362Z,66.84
2022-12-27T14:08:54.596Z,67.21
2022-12-27T14:11:36.244Z,67.07
2022-12-27T14:14:04.673Z,67.08
2022-12-27T14:16:55.927Z,66.91
2022-12-27T14:19:40.495Z,67.51
2022-12-27T14:22:30.863Z,67.27
2022-12-27T14:25:34.898Z,67.45
2022-12-27T14:28:24.109Z,67.24
2022-12-27T14:31:02.653Z,67.42
2022-12-27T14:33:52.284Z,67.14
2022-12-27T14:36:30.830Z,67.53
2022-12-27T14:39:24.519Z,67.34
2022-12-27T14:42:28.119Z,66.71
2022-12-27T14:45:14.100Z,66.56
2022-12-27T14:48:08.907Z,66.83
2022-12-27T14:51:01.271Z,67.00
2022-12-27T14:53:47.981Z,67.24
2022-12-27T14:56:46.724Z,66.99
2022-12-27T14:59:22.328Z,66.99
2022-12-27T15:02:03.707Z,66.82
2022-12-27T15:04:43.479Z,66.98
2022-12-27T15:07:37.261Z,66.47
2022-12-27T15:10:20.983Z,66.62
2022-12-27T15:12:58.216Z,66.60
2022-12-27T15:15:28.734Z,65.80
2022-12-27T15:18:04.426Z,65.93
2022-12-27T15:20:54.690Z,66.35
2022-12-27T15:23:45.775Z,66.42
2022-12-27T15:26:32.123Z,66.95
2022-12-27T15:29:12.624Z,67.40
2022-12-27T15:32:02.353Z,67.71
2022-12-27T15:34:53.426Z,67.81
2022-12-27T15:37:47.441Z,67.84
2022-12-27T15:40:36.912Z,68.24
2022-12-27T15:43:26.669Z,68.24
2022-12-27T15:46:18.074Z,68.10
2022-12-27T15:49:12.062Z,68.25
2022-12-27T15:52:08.626Z,68.14
2022-12-27T15:54:53.638Z,68.35
2022-12-27T15:57:42.166Z,67.85
2022-12-27T16:00:31.099Z,68.02
2022-12-27T16:03:24.017Z,68.31
2022-12-27T16:05:52.394Z,68.24
2022-12-27T16:08:24.578Z,68.49
2022-12-27T16:10:51.448Z,67.88
2022-12-27T16:13:24.348Z,68.28
2022-12-27T16:15:53.784Z,68.47
2022-12-27T16:18:23.205Z,68.50
2022-12-27T16:21:06.262Z,67.81
2022-12-27T16:23:47.599Z,68.22
2022-12-27T16:26:27.561Z,68.18
2022-12-27T16:29:14.619Z,67.97
2022-12-27T16:31:47.655Z,68.44
2022-12-27T16:34:23.919Z,68.59
2022-12-27T16:36:53.470Z,68.37
2022-12-27T16:39:45.386Z,68.58
2022-12-27T16:42:12.104Z,68.71
2022-12-27T16:44:56.302Z,68.91
2022-12-27T16:47:49.382Z,68.94
2022-12-27T16:50:41.421Z,69.03
2022-12-27T16:53:31.930Z,69.36
2022-12-27T16:56:22.314Z,69.27
2022-12-27T16:58:49.279Z,69.33
2022-12-27T17:01:18.590Z,69.70
2022-12-27T17:03:47.804Z,69.85
2022-12-27T17:06:31.163Z,69.74
2022-12-27T17:09:08.149Z,70.14
2022-12-27T17:11:52.601Z,70.34
2022-12-27T17:14:25.223Z,71.04
2022-12-27T17:16:56.222Z,70.67
2022-12-27T17:19:54.800Z,71.38
2022-12-27T17:22:21.923Z,71.34
2022-12-27T17:24:49.237Z,71.37
2022-12-27T17:27:54.381Z,71.57
2022-12-27T17:30:23.892Z,71.69
2022-12-27T17:33:31.764Z,71.99
2022-12-27T17:36:14.352Z,72.17
2022-12-27T17:38:49.630Z,72.28
2022-12-27T17:41:54.776Z,72.16
2022-12-27T17:45:01.540Z,72.11
2022-12-27T17:47:54.685Z,72.36
2022-12-27T17:50:25.620Z,72.36
2022-12-27T17:53:34.911Z,72.59
2022-12-27T17:56:31.237Z,72.70
2022-12-27T17:59:26.999Z,72.44
2022-12-27T18:02:02.625Z,72.35
2022-12-27T18:04:33.811Z,72.60
2022-12-27T18:07:02.944Z,72.49
2022-12-27T18:09:36.932Z,72.72
2022-12-27T18:12:08.929Z,72.45
2022-12-27T18:14:35.558Z,72.52
2022-12-27T18:17:02.086Z,72.75
2022-12-27T18:19:30.656Z,73.04
2022-12-27T18:22:00.189Z,72.58
2022-12-27T18:24:33.736Z,72.77
2022-12-27T18:27:02.388Z,72.45
2022-12-27T18:29:28.962Z,72.70
2022-12-27T18:31:57.314Z,72.46
2022-12-27T18:34:39.085Z,72.69
2022-12-27T18:37:17.186Z,72.42
2022-12-27T18:39:53.434Z,72.27
2022-12-27T18:42:31.611Z,71.82
2022-12-27T18:45:05.945Z,72.48
2022-12-27T18:47:38.120Z,72.39
2022-12-27T18:50:06.541Z,72.61
2022-12-27T18:52:37.461Z,72.51
2022-12-27T18:55:17.273Z,71.81
2022-12-27T18:57:44.463Z,72.37
2022-12-27T19:00:16.029Z,71.93
2022-12-27T19:02:42.995Z,71.86
2022-12-27T19:05:18.720Z,72.22
2022-12-27T19:08:00.775Z,72.28
2022-12-27T19:10:29.861Z,72.24
2022-12-27T19:12:57.231Z,72.21
2022-12-27T19:15:30.019Z,71.91
2022-12-27T19:18:02.229Z,71.82
2022-12-27T19:20:33.010Z,72.16
2022-12-27T19:23:02.334Z,72.16
2022-12-27T19:25:31.563Z,71.93
2022-12-27T19:28:21.831Z,72.27
2022-12-27T19:31:05.160Z,72.46
2022-12-27T19:33:34.327Z,72.86
2022-12-27T19:36:03.059Z,72.41
2022-12-27T19:38:31.901Z,72.43
2022-12-27T19:41:03.792Z,72.81
2022-12-27T19:43:38.115Z,72.33
2022-12-27T19:46:04.668Z,72.46
2022-12-27T19:48:31.170Z,72.07
2022-12-27T19:50:58.025Z,72.28
2022-12-27T19:53:33.457Z,72.47
2022-12-27T19:56:01.793Z,72.14
2022-12-27T19:58:29.637Z,72.35
2022-12-27T20:00:56.927Z,72.33
2022-12-27T20:03:23.700Z,72.44
2022-12-27T20:06:16.001Z,71.49
2022-12-27T20:08:45.620Z,71.55
2022-12-27T20:11:15.688Z,71.41
2022-12-27T20:13:42.150Z,71.16
2022-12-27T20:16:10.810Z,71.21
2022-12-27T20:18:38.714Z,71.27
2022-12-27T20:21:05.868Z,71.64
2022-12-27T20:23:32.262Z,71.11
2022-12-27T20:25:58.730Z,71.65
2022-12-27T20:28:25.089Z,71.91
2022-12-27T20:30:51.462Z,72.07
2022-12-27T20:33:17.961Z,71.92
2022-12-27T20:35:44.486Z,71.69
2022-12-27T20:38:12.036Z,71.75
2022-12-27T20:40:40.417Z,71.90
2022-12-27T20:43:06.796Z,72.09
2022-12-27T20:45:34.637Z,72.02
2022-12-27T20:48:01.215Z,71.91
2022-12-27T20:50:27.751Z,71.88
2022-12-27T20:52:54.839Z,71.52
2022-12-27T20:55:21.195Z,72.12
2022-12-27T20:57:47.544Z,72.40
2022-12-27T21:00:14.475Z,72.17
2022-12-27T21:02:40.988Z,72.66
2022-12-27T21:05:07.961Z,72.64
2022-12-27T21:07:34.728Z,73.25
2022-12-27T21:10:01.533Z,73.01
2022-12-27T21:12:27.970Z,72.55
2022-12-27T21:14:54.315Z,73.02
2022-12-27T21:17:20.691Z,72.81
2022-12-27T21:19:47.055Z,72.80
2022-12-27T21:22:13.520Z,72.83
2022-12-27T21:24:40.200Z,73.01
2022-12-27T21:27:06.888Z,73.22
2022-12-27T21:29:33.248Z,73.25
2022-12-27T21:32:01.436Z,72.77
2022-12-27T21:34:27.871Z,72.89
2022-12-27T21:36:54.476Z,72.73
2022-12-27T21:39:21.016Z,73.10
2022-12-27T21:41:47.461Z,73.29
2022-12-27T21:44:14.027Z,73.05
2022-12-27T21:46:41.955Z,73.33
2022-12-27T21:49:12.269Z,73.63
2022-12-27T21:51:40.650Z,73.41
2022-12-27T21:54:07.975Z,73.45
2022-12-27T21:56:34.797Z,73.21
2022-12-27T21:59:03.016Z,73.16
2022-12-27T22:01:50.276Z,73.37
2022-12-27T22:04:18.243Z,73.51
2022-12-27T22:06:47.132Z,73.17
2022-12-27T22:09:14.346Z,73.35
2022-12-27T22:11:40.793Z,72.89
2022-12-27T22:14:07.333Z,73.31
2022-12-27T22:16:37.456Z,73.66
2022-12-27T22:19:09.173Z,73.02
2022-12-27T22:21:37.537Z,73.03
2022-12-27T22:24:04.911Z,73.20
2022-12-27T22:26:34.887Z,73.13
2022-12-27T22:29:02.144Z,72.84
2022-12-27T22:31:30.830Z,72.93
2022-12-27T22:33:57.332Z,73.04
2022-12-27T22:36:24.852Z,72.96
2022-12-27T22:38:53.510Z,72.51
2022-12-27T22:41:26.050Z,72.16
2022-12-27T22:44:00.143Z,72.20
2022-12-27T22:46:28.410Z,71.92
2022-12-27T22:48:57.752Z,72.02
2022-12-27T22:51:29.771Z,71.95
2022-12-27T22:53:57.516Z,72.19
2022-12-27T22:56:32.839Z,72.15
2022-12-27T22:58:59.808Z,72.32
2022-12-27T23:01:28.985Z,72.60
2022-12-27T23:03:56.688Z,72.17
2022-12-27T23:06:24.288Z,72.57
2022-12-27T23:08:51.280Z,72.12
2022-12-27T23:11:20.267Z,72.54
2022-12-27T23:13:47.981Z,71.99
2022-12-27T23:16:15.090Z,71.84
2022-12-27T23:18:41.860Z,71.58
2022-12-27T23:21:20.441Z,71.56
2022-12-27T23:23:50.425Z,71.60
2022-12-27T23:26:18.361Z,70.88
2022-12-27T23:28:46.982Z,71.55
2022-12-27T23:31:14.251Z,71.66
2022-12-27T23:33:42.999Z,71.28
2022-12-27T23:36:10.248Z,71.65
2022-12-27T23:38:36.748Z,71.68
2022-12-27T23:41:06.570Z,71.57
2022-12-27T23:46:23.734Z,71.40
2022-12-27T23:48:50.820Z,71.23
2022-12-27T23:51:17.412Z,71.52
2022-12-27T23:53:44.813Z,71.79
2022-12-27T23:56:17.235Z,71.75
2022-12-27T23:58:44.663Z,71.63
